createdAt,value
2018-11-29T00:00:40.016Z,70.80
2018-11-29T00:03:09.204Z,70.70
2018-11-29T00:05:37.477Z,71.50
2018-11-29T00:08:05.704Z,70.90
2018-11-29T00:10:33.968Z,71.10
2018-11-29T00:13:02.156Z,70.90
2018-11-29T00:15:30.343Z,71.00
2018-11-29T00:17:58.544Z,70.90
2018-11-29T00:20:26.731Z,70.90
2018-11-29T00:22:54.899Z,70.90
2018-11-29T00:25:23.077Z,70.90
2018-11-29T00:27:51.272Z,71.60
2018-11-29T00:30:20.342Z,70.70
2018-11-29T00:32:48.923Z,71.00
2018-11-29T00:35:17.379Z,71.00
2018-11-29T00:37:45.607Z,71.70
2018-11-29T00:40:15.500Z,70.90
2018-11-29T00:42:43.712Z,70.90
2018-11-29T00:45:13.685Z,71.00
2018-11-29T00:47:42.013Z,70.80
2018-11-29T00:50:11.985Z,70.70
2018-11-29T00:52:40.956Z,70.70
2018-11-29T00:55:10.277Z,70.80
2018-11-29T00:57:38.822Z,70.90
2018-11-29T01:00:12.148Z,70.80
2018-11-29T01:02:40.325Z,70.70
2018-11-29T01:05:08.584Z,70.50
2018-11-29T01:07:36.759Z,70.50
2018-11-29T01:10:11.165Z,70.50
2018-11-29T01:12:39.389Z,70.60
2018-11-29T01:15:12.100Z,70.80
2018-11-29T01:17:40.288Z,70.70
2018-11-29T01:20:14.252Z,70.60
2018-11-29T01:22:42.452Z,70.50
2018-11-29T01:25:11.502Z,70.60
2018-11-29T01:27:39.728Z,70.70
2018-11-29T01:30:22.880Z,70.60
2018-11-29T01:32:51.075Z,70.50
2018-11-29T01:35:19.982Z,69.60
2018-11-29T01:37:48.427Z,70.60
2018-11-29T01:40:19.009Z,69.70
2018-11-29T01:42:55.126Z,69.60
2018-11-29T01:45:23.318Z,69.60
2018-11-29T01:47:51.520Z,69.40
2018-11-29T01:50:19.708Z,69.50
2018-11-29T01:52:47.888Z,69.40
2018-11-29T01:55:16.104Z,69.40
2018-11-29T01:57:44.292Z,69.60
2018-11-29T02:00:15.534Z,69.60
2018-11-29T02:02:44.515Z,69.70
2018-11-29T02:05:12.736Z,70.40
2018-11-29T02:07:40.900Z,69.50
2018-11-29T02:10:18.454Z,69.50
2018-11-29T02:12:46.651Z,69.40
2018-11-29T02:15:14.872Z,69.50
2018-11-29T02:17:43.076Z,69.50
2018-11-29T02:20:12.813Z,69.50
2018-11-29T02:22:41.025Z,69.70
2018-11-29T02:25:09.240Z,69.60
2018-11-29T02:27:37.432Z,69.40
2018-11-29T02:30:11.316Z,69.20
2018-11-29T02:32:39.505Z,69.30
2018-11-29T02:35:07.694Z,69.40
2018-11-29T02:37:35.887Z,69.40
2018-11-29T02:40:04.179Z,69.30
2018-11-29T02:42:32.432Z,69.40
2018-11-29T04:48:32.918Z,68.60
2018-11-29T04:51:01.051Z,68.60
2018-11-29T04:53:29.214Z,68.50
2018-11-29T04:55:57.369Z,68.80
2018-11-29T04:58:25.537Z,68.70
2018-11-29T05:00:53.725Z,68.70
2018-11-29T05:03:21.877Z,68.70
2018-11-29T05:05:50.047Z,68.70
2018-11-29T05:08:18.231Z,68.80
2018-11-29T05:10:46.410Z,68.80
2018-11-29T05:13:14.567Z,68.70
2018-11-29T05:15:42.722Z,69.00
2018-11-29T05:18:10.875Z,68.70
2018-11-29T05:20:39.027Z,68.60
2018-11-29T05:23:07.188Z,68.60
2018-11-29T05:25:35.333Z,68.60
2018-11-29T05:28:03.495Z,68.60
2018-11-29T05:30:31.665Z,68.60
2018-11-29T05:32:59.817Z,68.70
2018-11-29T05:35:27.973Z,68.60
2018-11-29T05:37:56.127Z,68.60
2018-11-29T05:40:24.272Z,68.50
2018-11-29T05:42:52.435Z,68.60
2018-11-29T05:45:20.620Z,68.50
2018-11-29T05:47:48.825Z,68.50
2018-11-29T05:50:17.034Z,68.50
2018-11-29T05:52:45.204Z,69.30
2018-11-29T05:55:13.363Z,68.50
2018-11-29T05:57:41.551Z,68.60
2018-11-29T06:00:12.323Z,68.50
2018-11-29T06:02:40.572Z,68.40
2018-11-29T06:05:09.830Z,68.50
2018-11-29T06:07:38.022Z,68.40
2018-11-29T06:10:06.253Z,68.60
2018-11-29T06:12:34.419Z,68.70
2018-11-29T06:15:02.628Z,68.50
2018-11-29T06:17:30.789Z,68.60
2018-11-29T06:19:58.932Z,68.60
2018-11-29T06:22:27.117Z,69.70
2018-11-29T06:24:55.293Z,68.60
2018-11-29T06:27:23.500Z,68.70
2018-11-29T06:29:51.656Z,68.80
2018-11-29T06:32:19.809Z,69.10
2018-11-29T06:34:47.979Z,69.10
2018-11-29T06:37:16.144Z,69.20
2018-11-29T06:39:44.351Z,69.10
2018-11-29T06:42:12.525Z,69.10
2018-11-29T06:44:40.753Z,69.20
2018-11-29T06:47:08.908Z,69.40
2018-11-29T06:49:37.065Z,69.30
2018-11-29T06:52:05.709Z,69.60
2018-11-29T06:54:33.876Z,69.70
2018-11-29T06:57:02.036Z,70.10
2018-11-29T06:59:30.181Z,70.30
2018-11-29T07:01:58.348Z,70.60
2018-11-29T07:04:26.591Z,71.00
2018-11-29T07:06:54.754Z,72.00
2018-11-29T07:09:22.892Z,71.40
2018-11-29T07:11:51.038Z,72.30
2018-11-29T07:14:19.186Z,71.70
2018-11-29T07:16:47.878Z,72.00
2018-11-29T07:19:16.020Z,72.10
2018-11-29T07:21:50.340Z,72.90
2018-11-29T07:24:18.594Z,72.20
2018-11-29T07:26:46.812Z,72.40
2018-11-29T07:29:16.977Z,72.40
2018-11-29T07:31:43.118Z,72.70
2018-11-29T07:34:11.259Z,72.90
2018-11-29T07:36:39.416Z,72.80
2018-11-29T07:39:10.024Z,72.90
2018-11-29T07:41:39.013Z,73.00
2018-11-29T07:44:09.400Z,73.00
2018-11-29T07:46:37.548Z,73.80
2018-11-29T07:49:05.711Z,73.40
2018-11-29T07:51:33.879Z,73.50
2018-11-29T07:54:02.011Z,73.50
2018-11-29T07:56:30.167Z,73.50
2018-11-29T07:58:58.298Z,73.40
2018-11-29T08:01:26.445Z,73.80
2018-11-29T08:03:54.653Z,73.30
2018-11-29T08:06:22.784Z,73.20
2018-11-29T08:08:50.946Z,73.20
2018-11-29T08:11:19.090Z,73.10
2018-11-29T08:13:47.247Z,72.90
2018-11-29T08:16:15.397Z,73.70
2018-11-29T08:18:43.556Z,73.00
2018-11-29T08:21:11.724Z,73.20
2018-11-29T08:23:39.901Z,73.30
2018-11-29T08:26:08.049Z,73.00
2018-11-29T08:28:37.478Z,73.00
2018-11-29T08:31:05.748Z,73.00
2018-11-29T08:33:33.965Z,72.80
2018-11-29T08:36:02.113Z,73.00
2018-11-29T08:38:30.248Z,73.00
2018-11-29T08:40:58.508Z,73.00
2018-11-29T08:43:26.906Z,72.80
2018-11-29T08:45:54.844Z,72.50
2018-11-29T08:48:22.979Z,73.10
2018-11-29T08:50:51.373Z,72.80
2018-11-29T08:53:19.549Z,72.60
2018-11-29T08:55:47.705Z,72.60
2018-11-29T08:58:16.003Z,72.50
2018-11-29T09:00:44.157Z,72.50
2018-11-29T09:03:12.305Z,72.30
2018-11-29T09:05:40.441Z,72.20
2018-11-29T09:08:08.604Z,72.20
2018-11-29T09:10:36.766Z,72.20
2018-11-29T09:13:05.293Z,72.30
2018-11-29T09:15:33.445Z,72.40
2018-11-29T09:18:01.677Z,72.20
2018-11-29T09:20:29.828Z,72.00
2018-11-29T09:22:58.038Z,71.90
2018-11-29T09:25:26.228Z,71.90
2018-11-29T09:27:54.412Z,71.50
2018-11-29T09:30:23.299Z,71.70
2018-11-29T09:32:53.416Z,71.60
2018-11-29T09:35:21.572Z,71.60
2018-11-29T09:37:49.713Z,71.50
2018-11-29T09:40:18.447Z,70.90
2018-11-29T09:42:46.687Z,71.30
2018-11-29T09:45:23.859Z,71.10
2018-11-29T09:47:54.723Z,71.00
2018-11-29T09:50:23.489Z,71.00
2018-11-29T09:52:51.608Z,70.70
2018-11-29T09:55:19.751Z,70.50
2018-11-29T09:57:48.825Z,70.40
2018-11-29T10:00:27.767Z,70.00
2018-11-29T10:02:55.225Z,69.80
2018-11-29T10:05:23.422Z,69.70
2018-11-29T10:07:51.612Z,69.60
2018-11-29T10:10:19.757Z,70.10
2018-11-29T10:12:47.927Z,69.60
2018-11-29T10:15:16.168Z,69.50
2018-11-29T10:17:44.315Z,69.60
2018-11-29T10:20:12.838Z,69.20
2018-11-29T10:22:41.760Z,69.00
2018-11-29T10:25:12.055Z,69.00
2018-11-29T10:27:40.659Z,68.80
2018-11-29T10:30:19.243Z,69.50
2018-11-29T10:32:47.515Z,68.40
2018-11-29T10:35:16.709Z,68.20
2018-11-29T10:37:44.844Z,68.20
2018-11-29T10:40:13.096Z,68.10
2018-11-29T10:42:41.356Z,67.80
2018-11-29T10:45:13.628Z,67.60
2018-11-29T10:47:42.730Z,67.40
2018-11-29T10:50:12.108Z,67.40
2018-11-29T10:52:40.285Z,67.40
2018-11-29T10:55:11.086Z,67.10
2018-11-29T10:57:39.850Z,67.00
2018-11-29T11:00:34.744Z,67.00
2018-11-29T11:03:10.280Z,67.60
2018-11-29T11:05:38.428Z,66.60
2018-11-29T11:08:08.749Z,66.60
2018-11-29T11:10:36.314Z,66.50
2018-11-29T11:13:04.731Z,66.40
2018-11-29T11:15:32.867Z,66.30
2018-11-29T11:18:01.019Z,66.50
2018-11-29T11:20:29.238Z,66.40
2018-11-29T11:22:57.396Z,66.40
2018-11-29T11:25:25.598Z,66.40
2018-11-29T11:27:53.774Z,66.10
2018-11-29T11:30:22.273Z,66.00
2018-11-29T11:32:51.452Z,66.80
2018-11-29T11:35:19.616Z,65.90
2018-11-29T11:37:47.776Z,65.90
2018-11-29T11:40:16.514Z,65.80
2018-11-29T11:42:45.580Z,65.90
2018-11-29T11:45:15.679Z,66.00
2018-11-29T11:47:43.885Z,66.10
2018-11-29T11:50:16.113Z,65.90
2018-11-29T11:52:44.289Z,65.90
2018-11-29T11:55:18.691Z,65.90
2018-11-29T11:57:41.457Z,65.80
2018-11-29T12:00:16.934Z,65.70
2018-11-29T12:02:45.376Z,65.60
2018-11-29T12:05:13.464Z,65.60
2018-11-29T12:07:41.661Z,66.40
2018-11-29T12:10:13.893Z,65.40
2018-11-29T12:12:42.060Z,65.40
2018-11-29T12:15:11.416Z,65.40
2018-11-29T12:17:39.900Z,65.40
2018-11-29T12:20:10.664Z,65.40
2018-11-29T12:22:39.085Z,65.50
2018-11-29T12:25:09.623Z,65.50
2018-11-29T12:27:37.814Z,65.60
2018-11-29T12:30:13.336Z,65.70
2018-11-29T12:32:41.512Z,65.70
2018-11-29T12:35:09.670Z,66.00
2018-11-29T12:37:37.886Z,65.90
2018-11-29T12:40:10.337Z,65.70
2018-11-29T12:42:38.567Z,65.70
2018-11-29T12:45:08.583Z,66.00
2018-11-29T12:47:36.905Z,66.00
2018-11-29T12:50:09.613Z,66.00
2018-11-29T12:52:37.770Z,66.10
2018-11-29T12:55:07.242Z,66.30
2018-11-29T12:57:35.508Z,66.30
2018-11-29T13:00:04.529Z,66.50
2018-11-29T13:02:32.684Z,66.50
2018-11-29T13:05:00.840Z,66.30
2018-11-29T13:07:28.996Z,66.70
2018-11-29T13:09:57.163Z,66.70
2018-11-29T13:12:25.312Z,66.80
2018-11-29T13:14:54.706Z,67.00
2018-11-29T13:17:22.865Z,67.00
2018-11-29T13:19:51.006Z,67.10
2018-11-29T13:22:19.160Z,67.40
2018-11-29T13:24:47.306Z,67.50
2018-11-29T13:27:15.459Z,67.80
2018-11-29T13:29:43.638Z,68.00
2018-11-29T13:32:11.763Z,67.70
2018-11-29T13:34:39.885Z,68.20
2018-11-29T13:37:08.049Z,68.20
2018-11-29T13:39:36.245Z,69.40
2018-11-29T13:42:04.455Z,69.00
2018-11-29T13:44:32.579Z,69.20
2018-11-29T13:47:00.712Z,69.20
2018-11-29T13:49:28.848Z,70.40
2018-11-29T13:51:57.004Z,69.80
2018-11-29T13:54:25.196Z,69.70
2018-11-29T13:56:53.319Z,70.00
2018-11-29T13:59:21.508Z,70.30
2018-11-29T14:01:49.665Z,70.50
2018-11-29T14:04:17.802Z,70.50
2018-11-29T14:06:45.926Z,70.80
2018-11-29T14:09:14.059Z,71.00
2018-11-29T14:11:42.172Z,71.10
2018-11-29T14:14:10.356Z,71.10
2018-11-29T14:16:38.490Z,71.30
2018-11-29T14:19:06.673Z,71.40
2018-11-29T14:21:34.852Z,71.50
2018-11-29T14:24:03.049Z,71.60
2018-11-29T14:26:31.186Z,71.50
2018-11-29T14:28:59.363Z,71.50
2018-11-29T14:31:27.476Z,71.50
2018-11-29T14:33:55.918Z,71.50
2018-11-29T14:36:24.155Z,71.50
2018-11-29T14:38:52.292Z,71.40
2018-11-29T14:41:20.421Z,71.30
2018-11-29T14:43:48.532Z,71.30
2018-11-29T14:46:17.283Z,71.40
2018-11-29T14:48:44.808Z,71.40
2018-11-29T14:51:12.961Z,71.50
2018-11-29T14:53:41.184Z,71.50
2018-11-29T14:56:09.368Z,71.30
2018-11-29T14:58:37.480Z,71.20
2018-11-29T15:01:05.760Z,71.20
2018-11-29T15:03:33.910Z,71.30
2018-11-29T15:06:02.075Z,71.30
2018-11-29T15:08:30.183Z,71.30
2018-11-29T15:10:59.174Z,71.40
2018-11-29T15:13:27.555Z,71.20
2018-11-29T15:15:55.903Z,71.20
2018-11-29T15:18:24.223Z,71.40
2018-11-29T15:20:52.722Z,71.30
2018-11-29T15:23:21.006Z,71.10
2018-11-29T15:25:49.285Z,71.00
2018-11-29T15:28:17.623Z,71.00
2018-11-29T15:30:45.864Z,71.10
2018-11-29T15:33:14.038Z,71.00
2018-11-29T15:35:42.219Z,71.50
2018-11-29T15:38:10.402Z,70.20
2018-11-29T15:40:38.598Z,70.00
2018-11-29T15:43:06.740Z,70.00
2018-11-29T15:45:35.145Z,69.60
2018-11-29T15:48:03.558Z,69.10
2018-11-29T15:50:31.989Z,68.60
2018-11-29T15:53:00.321Z,68.40
2018-11-29T15:55:28.764Z,68.40
2018-11-29T15:57:57.087Z,68.30
2018-11-29T16:00:26.410Z,68.00
2018-11-29T16:02:55.499Z,67.70
2018-11-29T16:05:23.641Z,67.50
2018-11-29T16:07:51.780Z,67.30
2018-11-29T16:10:21.278Z,67.20
2018-11-29T16:12:49.412Z,67.00
2018-11-29T16:15:18.440Z,66.70
2018-11-29T16:17:47.201Z,66.50
2018-11-29T16:20:17.760Z,66.20
2018-11-29T16:22:45.953Z,65.80
2018-11-29T16:25:14.120Z,65.70
2018-11-29T16:27:42.573Z,65.70
2018-11-29T16:30:20.999Z,65.40
2018-11-29T16:32:49.147Z,65.40
2018-11-29T16:35:17.290Z,65.30
2018-11-29T16:37:45.416Z,65.20
2018-11-29T16:40:13.563Z,65.00
2018-11-29T16:42:41.716Z,65.60
2018-11-29T16:45:12.188Z,64.20
2018-11-29T16:47:40.748Z,64.50
2018-11-29T16:50:14.185Z,64.00
2018-11-29T16:52:42.324Z,63.80
2018-11-29T16:55:11.343Z,63.70
2018-11-29T16:57:42.040Z,63.50
2018-11-29T17:00:15.557Z,62.80
2018-11-29T17:02:43.720Z,62.70
2018-11-29T17:05:13.145Z,62.30
2018-11-29T17:07:41.279Z,61.90
2018-11-29T17:10:11.717Z,61.80
2018-11-29T17:12:40.204Z,61.20
2018-11-29T17:15:12.797Z,60.50
2018-11-29T17:17:40.949Z,60.20
2018-11-29T17:20:11.364Z,59.80
2018-11-29T17:22:39.481Z,59.60
2018-11-29T17:25:09.177Z,59.00
2018-11-29T17:27:37.343Z,58.70
2018-11-29T17:30:10.249Z,58.50
2018-11-29T17:32:38.395Z,58.20
2018-11-29T17:35:06.640Z,58.20
2018-11-29T17:37:34.769Z,57.90
2018-11-29T17:40:02.920Z,57.80
2018-11-29T17:42:32.084Z,56.90
2018-11-29T17:45:00.208Z,57.30
2018-11-29T17:47:28.378Z,57.20
2018-11-29T17:49:56.640Z,57.10
2018-11-29T17:52:24.785Z,56.90
2018-11-29T17:54:52.927Z,56.80
2018-11-29T17:57:21.105Z,56.50
2018-11-29T17:59:49.271Z,56.20
2018-11-29T18:02:17.391Z,56.10
2018-11-29T18:04:45.543Z,56.10
2018-11-29T18:07:13.681Z,55.90
2018-11-29T18:09:41.807Z,55.80
2018-11-29T18:12:10.265Z,55.60
2018-11-29T18:14:39.564Z,55.40
2018-11-29T18:17:08.061Z,55.20
2018-11-29T18:19:36.208Z,55.20
2018-11-29T18:22:04.442Z,55.00
2018-11-29T18:24:32.653Z,55.10
2018-11-29T18:27:00.811Z,55.00
2018-11-29T18:29:28.969Z,54.90
2018-11-29T18:31:57.242Z,54.80
2018-11-29T18:34:25.310Z,55.20
2018-11-29T18:36:53.444Z,55.40
2018-11-29T18:39:21.658Z,54.70
2018-11-29T18:41:49.879Z,54.80
2018-11-29T18:44:18.017Z,54.70
2018-11-29T18:46:46.261Z,54.70
2018-11-29T18:49:14.521Z,54.70
2018-11-29T18:51:42.687Z,54.70
2018-11-29T18:54:10.820Z,54.90
2018-11-29T18:56:39.084Z,54.90
2018-11-29T18:59:07.242Z,54.80
2018-11-29T19:01:35.400Z,54.90
2018-11-29T19:04:03.559Z,54.90
2018-11-29T19:06:31.824Z,54.90
2018-11-29T19:08:59.954Z,55.00
2018-11-29T19:11:28.125Z,55.00
2018-11-29T19:13:56.266Z,54.80
2018-11-29T19:16:24.468Z,54.80
2018-11-29T19:18:52.676Z,55.00
2018-11-29T19:21:20.806Z,55.10
2018-11-29T19:23:48.976Z,55.00
2018-11-29T19:26:17.133Z,55.00
2018-11-29T19:28:45.323Z,55.00
2018-11-29T19:31:13.493Z,55.10
2018-11-29T19:33:41.721Z,55.20
2018-11-29T19:36:09.937Z,55.20
2018-11-29T19:38:38.069Z,55.20
2018-11-29T19:41:06.441Z,55.30
2018-11-29T19:43:34.593Z,55.20
2018-11-29T19:46:02.742Z,55.30
2018-11-29T19:48:30.898Z,55.50
2018-11-29T19:50:59.036Z,55.60
2018-11-29T19:53:27.523Z,55.60
2018-11-29T19:55:58.187Z,55.60
2018-11-29T19:58:26.395Z,55.60
2018-11-29T20:00:54.657Z,55.60
2018-11-29T20:03:22.862Z,55.60
2018-11-29T20:05:51.165Z,55.70
2018-11-29T20:08:19.285Z,55.80
2018-11-29T20:10:47.470Z,55.80
2018-11-29T20:13:15.720Z,55.90
2018-11-29T20:15:46.764Z,55.90
2018-11-29T20:18:15.090Z,56.00
2018-11-29T20:20:43.266Z,55.90
2018-11-29T20:23:12.088Z,56.10
2018-11-29T20:25:41.625Z,56.00
2018-11-29T20:28:09.779Z,56.00
2018-11-29T20:30:37.931Z,56.00
2018-11-29T20:33:06.343Z,56.00
2018-11-29T20:35:34.493Z,56.00
2018-11-29T20:38:02.672Z,56.10
2018-11-29T20:40:33.226Z,56.00
2018-11-29T20:43:01.671Z,56.10
2018-11-29T20:45:31.493Z,56.00
2018-11-29T20:47:59.767Z,56.20
2018-11-29T20:50:28.971Z,56.80
2018-11-29T20:52:58.472Z,56.30
2018-11-29T20:55:27.997Z,56.10
2018-11-29T20:57:56.208Z,56.20
2018-11-29T21:00:24.381Z,56.10
2018-11-29T21:02:52.509Z,56.10
2018-11-29T21:05:21.603Z,56.20
2018-11-29T21:07:51.124Z,56.20
2018-11-29T21:10:22.503Z,56.20
2018-11-29T21:12:50.665Z,56.10
2018-11-29T21:15:18.819Z,56.00
2018-11-29T21:17:46.946Z,56.00
2018-11-29T21:20:16.159Z,56.70
2018-11-29T21:22:45.677Z,56.10
2018-11-29T21:25:23.742Z,56.00
2018-11-29T21:27:51.872Z,56.10
2018-11-29T21:30:20.051Z,56.10
2018-11-29T21:32:48.715Z,56.20
2018-11-29T21:35:19.142Z,56.10
2018-11-29T21:37:47.358Z,56.90
2018-11-29T21:40:27.636Z,56.10
2018-11-29T21:42:56.092Z,56.10
2018-11-29T21:45:24.271Z,56.30
2018-11-29T21:47:52.436Z,56.30
2018-11-29T21:50:20.711Z,56.40
2018-11-29T21:52:48.858Z,56.50
2018-11-29T21:55:17.026Z,56.60
2018-11-29T21:57:45.233Z,56.70
2018-11-29T22:00:14.589Z,56.70
2018-11-29T22:02:47.834Z,56.70
2018-11-29T22:05:15.959Z,56.80
2018-11-29T22:07:44.132Z,56.80
2018-11-29T22:10:12.271Z,57.00
2018-11-29T22:12:40.384Z,56.90
2018-11-29T22:15:10.821Z,56.90
2018-11-29T22:17:53.559Z,57.00
2018-11-29T22:20:22.052Z,56.90
2018-11-29T22:22:50.170Z,57.00
2018-11-29T22:25:18.301Z,56.90
2018-11-29T22:27:46.493Z,57.00
2018-11-29T22:30:14.614Z,57.10
2018-11-29T22:32:42.786Z,57.00
2018-11-29T22:35:10.921Z,57.10
2018-11-29T22:37:39.090Z,57.30
2018-11-29T22:40:07.788Z,57.40
2018-11-29T22:42:35.956Z,57.40
2018-11-29T22:45:04.465Z,57.40
2018-11-29T22:47:32.625Z,57.40
2018-11-29T22:50:00.797Z,57.50
2018-11-29T22:52:28.924Z,57.50
2018-11-29T22:54:57.060Z,57.50
2018-11-29T22:57:25.183Z,57.60
2018-11-29T22:59:53.395Z,57.70
2018-11-29T23:02:21.568Z,57.70
2018-11-29T23:04:49.773Z,57.70
2018-11-29T23:07:17.913Z,57.60
2018-11-29T23:09:46.076Z,57.80
2018-11-29T23:12:14.221Z,57.80
2018-11-29T23:14:42.344Z,57.80
2018-11-29T23:17:10.505Z,57.80
2018-11-29T23:19:38.635Z,58.00
2018-11-29T23:22:06.765Z,58.00
2018-11-29T23:24:34.913Z,58.00
2018-11-29T23:27:03.090Z,58.10
2018-11-29T23:29:31.236Z,58.10
2018-11-29T23:31:59.390Z,58.10
2018-11-29T23:34:27.511Z,58.10
2018-11-29T23:36:55.660Z,58.20
2018-11-29T23:39:23.803Z,58.20
2018-11-29T23:41:51.933Z,58.40
2018-11-29T23:44:20.055Z,58.50
2018-11-29T23:46:48.243Z,58.60
2018-11-29T23:49:16.390Z,58.60
2018-11-29T23:51:44.535Z,58.60
2018-11-29T23:54:12.649Z,58.90
2018-11-29T23:56:40.795Z,58.70
2018-11-29T23:59:08.938Z,58.80
